createdAt,value
2018-09-20T00:56:20.025Z,23.3
2018-09-20T00:57:10.228Z,23.3
2018-09-20T00:57:59.732Z,23.3
2018-09-20T00:58:50.323Z,23.3
2018-09-20T00:59:39.842Z,23.3
2018-09-20T01:00:31.014Z,23.3
2018-09-20T01:01:19.963Z,23.3
2018-09-20T01:02:10.596Z,23.3
2018-09-20T01:03:00.433Z,23.3
2018-09-20T01:03:50.142Z,23.3
2018-09-20T01:04:40.499Z,23.3
2018-09-20T01:05:30.016Z,23.3
2018-09-20T01:06:21.177Z,23.4
2018-09-20T01:07:10.442Z,23.3
2018-09-20T01:08:00.788Z,23.3
2018-09-20T01:08:50.517Z,23.3
2018-09-20T01:09:40.850Z,23.3
2018-09-20T01:10:30.942Z,23.3
2018-09-20T01:11:20.414Z,23.3
2018-09-20T01:12:11.356Z,23.3
2018-09-20T01:13:01.402Z,23.3
2018-09-20T01:13:50.877Z,23.3
2018-09-20T01:14:41.579Z,23.3
2018-09-20T01:15:31.272Z,23.3
2018-09-20T01:16:21.299Z,23.3
2018-09-20T01:17:11.707Z,23.3
2018-09-20T01:18:01.759Z,23.3
2018-09-20T01:18:51.004Z,23.3
2018-09-20T01:19:41.595Z,23.3
2018-09-20T01:20:31.973Z,23.3
2018-09-20T01:21:22.324Z,23.3
2018-09-20T01:22:11.760Z,23.3
2018-09-20T01:23:01.272Z,23.3
2018-09-20T01:23:51.646Z,23.3
2018-09-20T01:24:42.421Z,23.3
2018-09-20T01:25:32.126Z,23.3
2018-09-20T01:26:21.910Z,23.3
2018-09-20T01:27:12.159Z,23.3
2018-09-20T01:28:02.082Z,23.3
2018-09-20T01:28:52.621Z,23.3
2018-09-20T01:29:42.638Z,23.3
2018-09-20T01:30:32.421Z,23.3
2018-09-20T01:31:23.336Z,23.3
2018-09-20T01:32:13.147Z,23.3
2018-09-20T01:33:02.053Z,23.3
2018-09-20T01:33:53.244Z,23.3
2018-09-20T01:34:43.031Z,23.3
2018-09-20T01:35:34.201Z,23.3
2018-09-20T01:36:22.958Z,23.3
2018-09-20T01:37:12.926Z,23.3
2018-09-20T01:38:02.989Z,23.3
2018-09-20T01:38:52.465Z,23.3
2018-09-20T01:39:42.858Z,23.3
2018-09-20T01:40:33.186Z,23.3
2018-09-20T01:41:23.005Z,23.3
2018-09-20T01:42:13.031Z,23.3
2018-09-20T01:43:03.123Z,23.3
2018-09-20T01:43:53.475Z,23.3
2018-09-20T01:44:43.518Z,23.3
2018-09-20T01:45:33.277Z,23.3
2018-09-20T01:46:23.916Z,23.3
2018-09-20T01:47:13.656Z,23.3
2018-09-20T01:48:02.891Z,23.3
2018-09-20T01:48:53.501Z,23.3
2018-09-20T01:49:43.860Z,23.3
2018-09-20T01:50:33.369Z,23.3
2018-09-20T01:51:24.257Z,23.3
2018-09-20T01:52:13.947Z,23.3
2018-09-20T01:53:04.124Z,23.3
2018-09-20T01:53:54.177Z,23.3
2018-09-20T01:54:43.729Z,23.3
2018-09-20T01:55:34.279Z,23.3
2018-09-20T01:56:24.589Z,23.3
2018-09-20T01:57:15.189Z,23.3
2018-09-20T01:58:04.462Z,23.3
2018-09-20T01:58:54.827Z,23.3
2018-09-20T01:59:44.059Z,23.3
2018-09-20T02:00:34.939Z,23.3
2018-09-20T02:01:24.504Z,23.3
2018-09-20T02:02:14.244Z,23.3
2018-09-20T02:03:04.892Z,23.3
2018-09-20T02:03:55.229Z,23.3
2018-09-20T02:04:44.701Z,23.3
2018-09-20T02:05:34.779Z,23.3
2018-09-20T02:06:25.118Z,23.3
2018-09-20T02:07:15.432Z,23.3
2018-09-20T02:08:05.509Z,23.3
2018-09-20T02:08:55.311Z,23.3
2018-09-20T02:09:45.623Z,23.3
2018-09-20T02:10:35.417Z,23.3
2018-09-20T02:11:25.183Z,23.3
2018-09-20T02:12:15.535Z,23.3
2018-09-20T02:13:05.026Z,23.3
2018-09-20T02:13:55.654Z,23.3
2018-09-20T02:14:44.920Z,23.3
2018-09-20T02:15:36.068Z,23.3
2018-09-20T02:16:25.256Z,23.3
2018-09-20T02:17:16.205Z,23.3
2018-09-20T02:18:05.963Z,23.2
2018-09-20T02:18:55.480Z,23.3
2018-09-20T02:19:46.638Z,23.3
2018-09-20T02:20:36.232Z,23.3
2018-09-20T02:21:26.212Z,23.3
2018-09-20T02:22:15.476Z,23.3
2018-09-20T02:23:06.332Z,23.2
2018-09-20T02:23:55.888Z,23.2
2018-09-20T02:24:46.238Z,23.2
2018-09-20T02:25:36.288Z,23.2
2018-09-20T02:26:27.138Z,23.3
2018-09-20T02:27:16.672Z,23.2
2018-09-20T02:28:06.513Z,23.3
2018-09-20T02:28:56.499Z,23.2
2018-09-20T02:29:47.102Z,23.2
2018-09-20T02:30:36.669Z,23.2
2018-09-20T02:31:26.937Z,23.2
2018-09-20T02:32:17.055Z,23.2
2018-09-20T02:33:07.955Z,23.3
2018-09-20T02:33:56.988Z,23.2
2018-09-20T02:34:47.275Z,23.2
2018-09-20T02:35:37.337Z,23.2
2018-09-20T02:36:27.363Z,23.2
2018-09-20T02:37:17.445Z,23.2
2018-09-20T02:38:07.474Z,23.2
2018-09-20T02:38:57.539Z,23.2
2018-09-20T02:39:47.690Z,23.2
2018-09-20T02:40:37.175Z,23.2
2018-09-20T02:41:27.737Z,23.2
2018-09-20T02:42:17.526Z,23.2
2018-09-20T02:43:07.282Z,23.2
2018-09-20T02:43:58.230Z,23.2
2018-09-20T02:44:47.446Z,23.2
2018-09-20T02:45:38.037Z,23.2
2018-09-20T02:46:28.384Z,23.2
2018-09-20T02:47:18.099Z,23.2
2018-09-20T02:48:08.591Z,23.2
2018-09-20T02:48:58.274Z,23.2
2018-09-20T02:49:48.073Z,23.2
2018-09-20T02:50:38.456Z,23.2
2018-09-20T02:51:27.927Z,23.2
2018-09-20T02:52:17.407Z,23.2
2018-09-20T02:53:08.954Z,23.2
2018-09-20T02:53:58.946Z,23.2
2018-09-20T02:54:48.148Z,23.2
2018-09-20T02:55:38.902Z,23.2
2018-09-20T02:56:28.559Z,23.2
2018-09-20T02:57:18.609Z,23.2
2018-09-20T02:58:09.050Z,23.2
2018-09-20T02:59:00.357Z,23.2
2018-09-20T02:59:49.093Z,23.2
2018-09-20T03:00:38.605Z,23.2
2018-09-20T03:01:28.933Z,23.2
2018-09-20T03:02:19.520Z,23.2
2018-09-20T03:03:09.343Z,23.2
2018-09-20T03:03:59.725Z,23.2
2018-09-20T03:04:48.348Z,23.2
2018-09-20T03:05:38.943Z,23.2
2018-09-20T03:06:29.938Z,23.2
2018-09-20T03:07:19.928Z,23.2
2018-09-20T03:08:09.978Z,23.2
2018-09-20T03:08:59.175Z,23.2
2018-09-20T03:09:50.144Z,23.2
2018-09-20T03:10:39.615Z,23.2
2018-09-20T03:11:30.272Z,23.2
2018-09-20T03:12:19.748Z,23.2
2018-09-20T03:13:12.107Z,23.2
2018-09-20T03:14:00.204Z,23.2
2018-09-20T03:14:50.274Z,23.2
2018-09-20T03:15:40.018Z,23.1
2018-09-20T03:16:30.623Z,23.1
2018-09-20T03:17:20.744Z,23.2
2018-09-20T03:18:10.184Z,23.1
2018-09-20T03:19:01.137Z,23.1
2018-09-20T03:19:50.909Z,23.1
2018-09-20T03:20:41.205Z,23.2
2018-09-20T03:21:30.467Z,23.1
2018-09-20T03:22:20.466Z,23.1
2018-09-20T03:23:10.864Z,23.1
2018-09-20T03:24:00.949Z,23.1
2018-09-20T03:24:51.009Z,23.1
2018-09-20T03:25:41.369Z,23.1
2018-09-20T03:26:31.087Z,23.1
2018-09-20T03:27:20.866Z,23.1
2018-09-20T03:28:11.569Z,23.1
2018-09-20T03:29:00.704Z,23.1
2018-09-20T03:29:51.338Z,23.1
2018-09-20T03:30:44.342Z,23.2
2018-09-20T03:31:31.784Z,23.1
2018-09-20T03:32:21.967Z,23.1
2018-09-20T03:33:11.937Z,23.1
2018-09-20T03:34:01.535Z,23.1
2018-09-20T03:34:52.106Z,23.1
2018-09-20T03:35:42.508Z,23.1
2018-09-20T03:36:31.808Z,23.1
2018-09-20T03:37:21.963Z,23.1
2018-09-20T03:38:11.408Z,23.1
2018-09-20T03:39:02.362Z,23.1
2018-09-20T03:39:51.883Z,23.1
2018-09-20T03:40:42.166Z,23.1
2018-09-20T03:41:31.933Z,23.1
2018-09-20T03:42:22.273Z,23.1
2018-09-20T03:43:12.065Z,23.1
2018-09-20T03:44:01.833Z,23.1
2018-09-20T03:44:52.498Z,23.1
2018-09-20T03:45:42.515Z,23.1
2018-09-20T03:46:32.617Z,23.1
2018-09-20T03:47:22.960Z,23.1
2018-09-20T03:48:12.710Z,23.1
2018-09-20T03:49:01.906Z,23.1
2018-09-20T03:49:52.859Z,23.1
2018-09-20T03:50:42.612Z,23.1
2018-09-20T03:51:33.224Z,23.1
2018-09-20T03:52:23.369Z,23.1
2018-09-20T03:53:12.806Z,23.1
2018-09-20T03:54:02.578Z,23.1
2018-09-20T03:54:53.507Z,23.1
2018-09-20T03:55:43.602Z,23.1
2018-09-20T03:56:34.172Z,23.1
2018-09-20T03:57:23.442Z,23.1
2018-09-20T03:58:13.442Z,23.1
2018-09-20T03:59:02.909Z,23.1
2018-09-20T03:59:53.831Z,23.1
2018-09-20T04:00:43.659Z,23.1
2018-09-20T04:01:34.339Z,23.1
2018-09-20T04:02:24.282Z,23.1
2018-09-20T04:03:14.101Z,23.1
2018-09-20T04:04:04.192Z,23.1
2018-09-20T04:04:53.364Z,23.1
2018-09-20T04:05:44.050Z,23.1
2018-09-20T04:06:34.396Z,23.1
2018-09-20T04:07:24.356Z,23.1
2018-09-20T04:08:14.196Z,23.1
2018-09-20T04:09:03.702Z,23.1
2018-09-20T04:09:55.401Z,23.1
2018-09-20T04:10:44.374Z,23.1
2018-09-20T04:11:34.162Z,23.1
2018-09-20T04:12:24.233Z,23.1
2018-09-20T04:13:14.850Z,23.1
2018-09-20T04:14:04.622Z,23.1
2018-09-20T04:14:54.764Z,23.1
2018-09-20T04:15:44.812Z,23.1
2018-09-20T04:16:35.068Z,23.1
2018-09-20T04:17:24.906Z,23.1
2018-09-20T04:18:14.632Z,23.1
2018-09-20T04:19:04.964Z,23.1
2018-09-20T04:19:54.524Z,23.1
2018-09-20T04:20:45.422Z,23.1
2018-09-20T04:21:35.204Z,23.1
2018-09-20T04:22:24.177Z,23.1
2018-09-20T04:23:15.547Z,23.1
2018-09-20T04:24:05.379Z,23.1
2018-09-20T04:24:55.724Z,23.1
2018-09-20T04:25:45.781Z,23.1
2018-09-20T04:26:35.021Z,23.1
2018-09-20T04:27:25.878Z,23.1
2018-09-20T04:28:15.386Z,23.1
2018-09-20T04:29:05.742Z,23.1
2018-09-20T04:29:56.169Z,23.1
2018-09-20T04:30:46.164Z,23.1
2018-09-20T04:31:36.527Z,23.1
2018-09-20T04:32:26.301Z,23.1
2018-09-20T04:33:16.693Z,23.1
2018-09-20T04:34:05.332Z,23.1
2018-09-20T04:34:56.212Z,23.1
2018-09-20T04:35:46.681Z,23.1
2018-09-20T04:36:35.795Z,23.1
2018-09-20T04:37:26.143Z,23.1
2018-09-20T04:38:17.033Z,23.1
2018-09-20T04:39:06.514Z,23.1
2018-09-20T04:39:56.568Z,23.1
2018-09-20T04:40:46.026Z,23.1
2018-09-20T04:41:36.733Z,23.1
2018-09-20T04:42:26.993Z,23.1
2018-09-20T04:43:17.071Z,23.1
2018-09-20T04:44:06.544Z,23.1
2018-09-20T04:44:56.913Z,23.1
2018-09-20T04:45:47.349Z,23.1
2018-09-20T04:46:36.240Z,23
2018-09-20T04:47:27.428Z,23.1
2018-09-20T04:48:17.173Z,23.1
2018-09-20T04:49:07.256Z,23
2018-09-20T04:49:57.581Z,23.1
2018-09-20T04:50:47.045Z,23
2018-09-20T04:51:37.725Z,23.1
2018-09-20T04:52:27.731Z,23.1
2018-09-20T04:53:18.919Z,23
2018-09-20T04:54:07.958Z,23.1
2018-09-20T04:54:57.093Z,23.1
2018-09-20T04:55:47.451Z,23.1
2018-09-20T04:56:38.102Z,23.1
2018-09-20T04:57:27.611Z,23
2018-09-20T04:58:18.038Z,23
2018-09-20T04:59:08.258Z,23
2018-09-20T04:59:58.686Z,23
2018-09-20T05:00:48.690Z,23.1
2018-09-20T05:01:38.183Z,23
2018-09-20T05:02:27.945Z,23.1
2018-09-20T05:03:19.098Z,23.1
2018-09-20T05:04:08.088Z,23.1
2018-09-20T05:04:58.421Z,23
2018-09-20T05:05:48.200Z,23
2018-09-20T05:06:38.805Z,23
2018-09-20T05:07:28.297Z,23
2018-09-20T05:25:24.666Z,22.9
2018-09-20T05:26:14.707Z,23
2018-09-20T05:27:04.695Z,23
2018-09-20T05:27:54.498Z,23
2018-09-20T05:28:44.263Z,23
2018-09-20T05:29:34.423Z,22.9
2018-09-20T05:30:24.528Z,22.9
2018-09-20T05:31:14.748Z,22.9
2018-09-20T05:32:04.562Z,22.9
2018-09-20T05:32:54.647Z,22.9
2018-09-20T05:33:44.630Z,22.9
2018-09-20T05:34:34.811Z,22.9
2018-09-20T05:35:26.178Z,22.9
2018-09-20T05:36:14.825Z,22.9
2018-09-20T05:37:05.562Z,22.9
2018-09-20T05:37:55.285Z,22.9
2018-09-20T05:38:44.507Z,22.9
2018-09-20T05:39:35.688Z,22.9
2018-09-20T05:40:24.618Z,22.9
2018-09-20T05:41:15.277Z,22.9
2018-09-20T05:42:05.269Z,22.9
2018-09-20T05:42:55.075Z,22.9
2018-09-20T05:43:46.074Z,22.9
2018-09-20T05:44:36.005Z,22.9
2018-09-20T05:45:25.578Z,22.9
2018-09-20T05:46:16.307Z,22.9
2018-09-20T05:47:05.721Z,22.9
2018-09-20T05:47:55.989Z,22.9
2018-09-20T05:48:46.372Z,22.9
2018-09-20T05:49:35.867Z,22.9
2018-09-20T05:50:26.470Z,22.9
2018-09-20T05:51:16.347Z,22.9
2018-09-20T05:52:06.324Z,22.9
2018-09-20T05:52:56.108Z,22.9
2018-09-20T05:53:46.518Z,22.9
2018-09-20T05:54:37.650Z,22.9
2018-09-20T05:55:27.179Z,22.9
2018-09-20T05:56:17.009Z,22.9
2018-09-20T05:57:06.685Z,22.9
2018-09-20T05:57:56.837Z,22.9
2018-09-20T05:58:47.191Z,22.9
2018-09-20T05:59:36.590Z,22.9
2018-09-20T06:00:26.724Z,22.9
2018-09-20T06:01:17.011Z,22.9
2018-09-20T06:02:06.739Z,22.9
2018-09-20T06:02:57.452Z,22.9
2018-09-20T06:03:47.460Z,22.9
2018-09-20T06:04:37.111Z,22.9
2018-09-20T06:05:27.458Z,22.9
2018-09-20T06:06:17.427Z,22.9
2018-09-20T06:07:07.456Z,22.9
2018-09-20T06:07:57.828Z,22.9
2018-09-20T06:08:47.906Z,22.9
2018-09-20T06:09:37.615Z,22.9
2018-09-20T06:10:28.245Z,22.9
2018-09-20T06:11:17.796Z,22.9
2018-09-20T06:12:08.147Z,22.9
2018-09-20T06:12:57.609Z,22.9
2018-09-20T06:13:47.968Z,22.9
2018-09-20T06:14:38.318Z,22.9
2018-09-20T06:15:28.063Z,22.9
2018-09-20T06:16:18.708Z,22.9
2018-09-20T06:17:08.228Z,22.9
2018-09-20T06:17:58.553Z,22.9
2018-09-20T06:18:48.336Z,22.9
2018-09-20T06:19:37.776Z,22.9
2018-09-20T06:20:28.166Z,22.9
2018-09-20T06:21:17.900Z,22.9
2018-09-20T06:22:08.332Z,22.9
2018-09-20T06:22:58.369Z,22.9
2018-09-20T06:23:48.658Z,22.9
2018-09-20T06:24:39.064Z,22.9
2018-09-20T06:25:29.198Z,22.9
2018-09-20T06:26:19.144Z,22.9
2018-09-20T06:27:08.987Z,22.9
2018-09-20T06:27:59.287Z,22.9
2018-09-20T06:28:48.793Z,22.9
2018-09-20T06:29:38.683Z,22.9
2018-09-20T06:30:28.694Z,22.9
2018-09-20T06:31:19.304Z,22.9
2018-09-20T06:32:08.824Z,22.9
2018-09-20T06:32:59.144Z,22.9
2018-09-20T06:33:49.733Z,22.9
2018-09-20T06:34:38.984Z,22.9
2018-09-20T06:35:29.872Z,22.9
2018-09-20T06:36:18.794Z,22.9
2018-09-20T06:37:10.012Z,22.9
2018-09-20T06:37:59.772Z,22.9
2018-09-20T06:38:49.776Z,22.9
2018-09-20T06:39:39.617Z,22.9
2018-09-20T06:40:30.046Z,22.9
2018-09-20T06:41:20.036Z,22.9
2018-09-20T06:42:09.339Z,22.9
2018-09-20T06:43:00.109Z,22.9
2018-09-20T06:43:50.192Z,22.9
2018-09-20T06:44:40.244Z,22.9
2018-09-20T06:45:28.856Z,22.9
2018-09-20T06:46:20.656Z,22.9
2018-09-20T06:47:10.151Z,22.9
2018-09-20T06:48:00.278Z,22.9
2018-09-20T06:48:50.929Z,22.9
2018-09-20T06:49:40.994Z,22.9
2018-09-20T06:50:31.341Z,22.9
2018-09-20T06:51:21.321Z,22.9
2018-09-20T06:52:11.155Z,23
2018-09-20T06:53:00.970Z,23
2018-09-20T06:53:50.963Z,22.9
2018-09-20T06:54:40.392Z,23
2018-09-20T06:55:31.413Z,23
2018-09-20T06:56:21.191Z,23
2018-09-20T06:57:11.186Z,23
2018-09-20T06:58:01.560Z,23
2018-09-20T06:58:51.388Z,23
2018-09-20T06:59:41.668Z,23
2018-09-20T07:00:31.126Z,23
2018-09-20T07:01:21.475Z,23
2018-09-20T07:02:11.643Z,23
2018-09-20T07:03:02.572Z,23
2018-09-20T07:03:51.186Z,23
2018-09-20T07:04:40.937Z,23
2018-09-20T07:05:32.165Z,23
2018-09-20T07:06:21.682Z,23
2018-09-20T07:07:11.947Z,23
2018-09-20T07:08:01.809Z,23
2018-09-20T07:08:52.362Z,23
2018-09-20T07:09:42.408Z,23
2018-09-20T07:10:32.207Z,23
2018-09-20T07:11:22.596Z,23
2018-09-20T07:12:12.700Z,23
2018-09-20T07:13:02.420Z,23
2018-09-20T07:13:52.838Z,23
2018-09-20T07:14:42.235Z,23
2018-09-20T07:15:32.115Z,23
2018-09-20T07:16:22.432Z,23
2018-09-20T07:17:12.751Z,23
2018-09-20T07:18:03.233Z,23
2018-09-20T07:18:53.201Z,23
2018-09-20T07:19:42.418Z,23
2018-09-20T07:20:33.234Z,23
2018-09-20T07:21:23.387Z,23.1
2018-09-20T07:22:12.813Z,23
2018-09-20T07:23:02.862Z,23
2018-09-20T07:23:53.507Z,23
2018-09-20T07:24:43.334Z,23
2018-09-20T07:25:33.836Z,23
2018-09-20T07:26:22.804Z,23.1
2018-09-20T07:27:13.814Z,23.1
2018-09-20T07:28:03.247Z,23.1
2018-09-20T07:28:53.865Z,23
2018-09-20T07:29:43.987Z,23.1
2018-09-20T07:30:33.965Z,23.1
2018-09-20T07:31:23.089Z,23.1
2018-09-20T07:32:13.526Z,23.1
2018-09-20T07:33:03.906Z,23.1
2018-09-20T07:33:53.906Z,23.1
2018-09-20T07:34:44.016Z,23.1
2018-09-20T07:35:34.354Z,23.1
2018-09-20T07:36:23.935Z,23.1
2018-09-20T07:37:14.455Z,23.1
2018-09-20T07:38:03.514Z,23.1
2018-09-20T07:38:54.036Z,23.1
2018-09-20T07:39:44.301Z,23.1
2018-09-20T07:40:34.209Z,23.1
2018-09-20T07:41:24.492Z,23.1
2018-09-20T07:42:14.838Z,23.1
2018-09-20T07:43:04.853Z,23.1
2018-09-20T07:43:54.402Z,23.1
2018-09-20T07:44:45.011Z,23.1
2018-09-20T07:45:34.528Z,23.1
2018-09-20T07:46:24.594Z,23.1
2018-09-20T07:47:15.349Z,23.1
2018-09-20T07:48:05.000Z,23.1
2018-09-20T07:48:55.045Z,23.1
2018-09-20T07:49:45.190Z,23.1
2018-09-20T07:50:35.165Z,23.1
2018-09-20T07:51:25.205Z,23.1
2018-09-20T07:52:15.575Z,23.1
2018-09-20T07:53:05.095Z,23.1
2018-09-20T07:53:56.658Z,23.1
2018-09-20T07:54:45.554Z,23.1
2018-09-20T07:55:35.599Z,23.1
2018-09-20T07:56:25.652Z,23.1
2018-09-20T07:57:16.052Z,23.1
2018-09-20T07:58:05.714Z,23.1
2018-09-20T07:58:55.479Z,23.1
2018-09-20T07:59:46.424Z,23.1
2018-09-20T08:00:35.464Z,23.1
2018-09-20T08:01:25.303Z,23.1
2018-09-20T08:02:15.769Z,23.1
2018-09-20T08:03:06.161Z,23.1
2018-09-20T08:03:57.452Z,23.1
2018-09-20T08:04:47.406Z,23.1
2018-09-20T08:05:37.453Z,23.1
2018-09-20T08:06:26.666Z,23.1
2018-09-20T08:07:18.042Z,23.1
2018-09-20T08:08:06.848Z,23.1
2018-09-20T08:08:56.571Z,23.1
2018-09-20T08:09:45.789Z,23.1
2018-09-20T08:10:36.343Z,23.1
2018-09-20T08:11:27.026Z,23.1
2018-09-20T08:12:16.826Z,23.1
2018-09-20T08:13:07.921Z,23.1
2018-09-20T08:13:57.188Z,23.1
2018-09-20T08:14:46.509Z,23.1
2018-09-20T08:15:36.785Z,23.1
2018-09-20T08:16:26.363Z,23.1
2018-09-20T08:17:17.443Z,23.1
2018-09-20T08:18:07.196Z,23.1
2018-09-20T08:18:58.010Z,23.1
2018-09-20T08:19:47.115Z,23.1
2018-09-20T08:20:37.212Z,23.1
2018-09-20T08:21:27.798Z,23.1
2018-09-20T08:22:16.988Z,23.1
2018-09-20T08:23:07.318Z,23.1
2018-09-20T08:23:58.193Z,23.1
2018-09-20T08:24:47.785Z,23.1
2018-09-20T08:25:37.863Z,23.1
2018-09-20T08:26:27.287Z,23.1
2018-09-20T08:27:18.003Z,23.1
2018-09-20T08:28:08.560Z,23.1
2018-09-20T08:28:58.418Z,23.1
2018-09-20T08:29:48.166Z,23.1
2018-09-20T08:30:38.159Z,23.1
2018-09-20T08:31:28.544Z,23.1
2018-09-20T08:32:18.645Z,23.1
2018-09-20T08:33:08.394Z,23.1
2018-09-20T08:33:58.672Z,23.1
2018-09-20T08:34:48.525Z,23.1
2018-09-20T08:35:38.296Z,23.1
2018-09-20T08:36:28.854Z,23.1
2018-09-20T08:37:18.280Z,23.1
2018-09-20T08:38:08.784Z,23.1
2018-09-20T08:38:58.299Z,23.1
2018-09-20T08:39:48.584Z,23.1
2018-09-20T08:40:38.940Z,23.1
2018-09-20T08:41:28.985Z,23.1
2018-09-20T08:42:19.411Z,23.1
2018-09-20T08:43:08.881Z,23.1
2018-09-20T08:43:59.034Z,23.1
2018-09-20T08:44:49.371Z,23.1
2018-09-20T08:45:38.824Z,23.1
2018-09-20T08:46:28.796Z,23.1
2018-09-20T08:47:19.714Z,23.1
2018-09-20T08:48:10.878Z,23.1
2018-09-20T08:48:59.591Z,23.1
2018-09-20T08:49:49.689Z,23.1
2018-09-20T08:50:39.524Z,23.1
2018-09-20T08:51:29.854Z,23.1
2018-09-20T08:52:19.695Z,23.1
2018-09-20T08:53:09.347Z,23.1
2018-09-20T08:54:00.132Z,23.1
2018-09-20T08:54:50.588Z,23.1
2018-09-20T08:55:40.117Z,23.1
2018-09-20T08:56:30.505Z,23.1
2018-09-20T08:57:21.674Z,23.1
2018-09-20T08:58:10.323Z,23.1
2018-09-20T08:59:00.063Z,23.1
2018-09-20T08:59:50.420Z,23.1
2018-09-20T09:00:39.404Z,23.1
2018-09-20T09:01:30.780Z,23.1
2018-09-20T09:02:20.152Z,23.1
2018-09-20T09:03:10.625Z,23.1
2018-09-20T09:04:00.410Z,23.1
2018-09-20T09:04:50.780Z,23.1
2018-09-20T09:05:41.161Z,23.1
2018-09-20T09:06:31.192Z,23.2
2018-09-20T09:07:20.961Z,23.2
2018-09-20T09:08:11.342Z,23.1
2018-09-20T09:09:01.355Z,23.2
2018-09-20T09:09:51.512Z,23.2
2018-09-20T09:10:41.508Z,23.2
2018-09-20T09:11:31.010Z,23.2
2018-09-20T09:12:21.350Z,23.2
2018-09-20T09:13:11.399Z,23.2
2018-09-20T09:14:01.454Z,23.2
2018-09-20T09:14:51.542Z,23.2
2018-09-20T09:15:41.892Z,23.2
2018-09-20T09:16:32.014Z,23.2
2018-09-20T09:17:21.474Z,23.2
2018-09-20T09:18:12.314Z,23.2
2018-09-20T09:19:01.592Z,23.2
2018-09-20T09:19:52.280Z,23.2
2018-09-20T09:20:41.747Z,23.2
2018-09-20T09:21:31.472Z,23.2
2018-09-20T09:22:21.831Z,23.2
2018-09-20T09:23:12.206Z,23.2
2018-09-20T09:40:04.798Z,23.2
2018-09-20T09:40:54.068Z,23.2
2018-09-20T09:41:45.163Z,23.2
2018-09-20T09:42:34.449Z,23.2
2018-09-20T09:43:25.075Z,23.2
2018-09-20T09:44:14.925Z,23.2
2018-09-20T09:45:05.717Z,23.2
2018-09-20T09:45:54.941Z,23.2
2018-09-20T09:46:45.058Z,23.2
2018-09-20T09:47:34.247Z,23.2
2018-09-20T09:48:25.465Z,23.2
2018-09-20T09:49:15.494Z,23.2
2018-09-20T09:50:05.258Z,23.2
2018-09-20T09:50:55.350Z,23.2
2018-09-20T09:51:45.117Z,23.2
2018-09-20T09:52:35.775Z,23.2
2018-09-20T09:53:25.869Z,23.2
2018-09-20T09:54:15.763Z,23.2
2018-09-20T09:55:06.016Z,23.2
2018-09-20T09:55:55.973Z,23.2
2018-09-20T09:56:46.099Z,23.3
2018-09-20T09:57:36.137Z,23.2
2018-09-20T09:58:25.924Z,23.2
2018-09-20T09:59:16.004Z,23.3
2018-09-20T10:00:06.390Z,23.2
2018-09-20T10:00:56.399Z,23.2
2018-09-20T10:01:45.884Z,23.3
2018-09-20T10:02:38.029Z,23.2
2018-09-20T10:03:26.319Z,23.3
2018-09-20T10:04:16.154Z,23.2
2018-09-20T10:05:06.425Z,23.3
2018-09-20T10:05:56.519Z,23.2
2018-09-20T10:06:46.013Z,23.3
2018-09-20T10:07:35.266Z,23.3
2018-09-20T10:08:26.971Z,23.3
2018-09-20T10:09:17.026Z,23.3
2018-09-20T10:10:06.901Z,23.3
2018-09-20T10:10:56.846Z,23.3
2018-09-20T10:11:46.941Z,23.3
2018-09-20T10:12:36.438Z,23.3
2018-09-20T10:13:28.503Z,23.3
2018-09-20T10:14:16.910Z,23.3
2018-09-20T10:15:05.892Z,23.3
2018-09-20T10:15:57.523Z,23.3
2018-09-20T10:16:47.093Z,23.3
2018-09-20T10:17:36.823Z,23.3
2018-09-20T10:18:26.897Z,23.3
2018-09-20T10:19:17.790Z,23.3
2018-09-20T10:20:08.644Z,23.3
2018-09-20T10:20:57.953Z,23.3
2018-09-20T10:21:47.756Z,23.3
2018-09-20T10:22:38.058Z,23.3
2018-09-20T10:23:27.841Z,23.3
2018-09-20T10:24:18.191Z,23.3
2018-09-20T10:25:08.263Z,23.3
2018-09-20T10:25:58.145Z,23.3
2018-09-20T10:26:48.142Z,23.3
2018-09-20T10:27:38.445Z,23.3
2018-09-20T10:28:28.533Z,23.3
2018-09-20T10:29:18.365Z,23.3
2018-09-20T10:30:08.348Z,23.3
2018-09-20T10:30:58.510Z,23.3
2018-09-20T10:31:48.181Z,23.3
2018-09-20T10:32:38.823Z,23.3
2018-09-20T10:33:28.597Z,23.3
2018-09-20T10:34:18.091Z,23.3
2018-09-20T10:35:08.236Z,23.3
2018-09-20T10:35:58.255Z,23.3
2018-09-20T10:36:49.126Z,23.3
2018-09-20T10:37:39.240Z,23.3
2018-09-20T10:38:29.025Z,23.3
2018-09-20T10:39:19.055Z,23.3
2018-09-20T10:40:09.120Z,23.3
2018-09-20T10:40:58.864Z,23.3
2018-09-20T10:41:48.945Z,23.3
2018-09-20T10:42:39.585Z,23.3
2018-09-20T10:43:29.367Z,23.3
2018-09-20T10:44:19.710Z,23.3
2018-09-20T10:45:09.810Z,23.3
2018-09-20T10:46:00.079Z,23.3
2018-09-20T10:46:49.379Z,23.3
2018-09-20T10:47:40.002Z,23.3
2018-09-20T10:48:29.740Z,23.3
2018-09-20T10:49:19.282Z,23.3
2018-09-20T10:50:09.308Z,23.3
2018-09-20T10:50:59.986Z,23.3
2018-09-20T10:51:50.315Z,23.3
2018-09-20T10:52:40.045Z,23.3
2018-09-20T10:53:30.419Z,23.3
2018-09-20T10:54:20.459Z,23.3
2018-09-20T10:55:10.221Z,23.3
2018-09-20T10:55:59.487Z,23.3
2018-09-20T10:56:50.434Z,23.3
2018-09-20T10:57:40.473Z,23.3
2018-09-20T10:58:30.489Z,23.3
2018-09-20T10:59:20.548Z,23.3
2018-09-20T11:00:10.941Z,23.3
2018-09-20T11:01:00.649Z,23.3
2018-09-20T11:01:50.789Z,23.3
2018-09-20T11:02:41.109Z,23.3
2018-09-20T11:03:31.969Z,23.3
2018-09-20T11:04:21.221Z,23.3
2018-09-20T11:05:11.301Z,23.3
2018-09-20T11:06:01.616Z,23.3
2018-09-20T11:06:50.856Z,23.3
2018-09-20T11:07:40.958Z,23.3
2018-09-20T11:08:31.558Z,23.3
2018-09-20T11:09:21.043Z,23.3
2018-09-20T11:10:11.426Z,23.3
2018-09-20T11:11:02.896Z,23.3
2018-09-20T11:11:51.828Z,23.3
2018-09-20T11:12:42.093Z,23.3
2018-09-20T11:13:31.377Z,23.3
2018-09-20T11:14:21.415Z,23.3
2018-09-20T11:15:11.753Z,23.3
2018-09-20T11:16:01.921Z,23.3
2018-09-20T11:16:51.975Z,23.3
2018-09-20T11:17:41.715Z,23.3
2018-09-20T11:18:32.543Z,23.3
2018-09-20T11:19:22.068Z,23.3
2018-09-20T11:20:11.707Z,23.3
2018-09-20T11:21:02.259Z,23.3
2018-09-20T11:21:52.600Z,23.4
2018-09-20T11:22:41.829Z,23.3
2018-09-20T11:23:32.385Z,23.4
2018-09-20T11:24:22.759Z,23.4
2018-09-20T11:25:12.814Z,23.3
2018-09-20T11:26:04.461Z,23.4
2018-09-20T11:26:52.662Z,23.4
2018-09-20T11:27:43.017Z,23.4
2018-09-20T11:28:33.053Z,23.4
2018-09-20T11:29:23.376Z,23.4
2018-09-20T11:30:12.895Z,23.4
2018-09-20T11:31:02.972Z,23.4
2018-09-20T11:31:53.341Z,23.4
2018-09-20T11:32:43.102Z,23.4
2018-09-20T11:33:33.444Z,23.4
2018-09-20T11:34:23.511Z,23.4
2018-09-20T11:35:13.569Z,23.4
2018-09-20T11:36:03.369Z,23.4
2018-09-20T11:36:53.462Z,23.4
2018-09-20T11:37:43.787Z,23.4
2018-09-20T11:38:33.797Z,23.4
2018-09-20T11:39:23.617Z,23.4
2018-09-20T11:40:13.161Z,23.4
2018-09-20T11:41:03.756Z,23.4
2018-09-20T11:41:54.136Z,23.4
2018-09-20T11:42:43.854Z,23.4
2018-09-20T11:43:34.641Z,23.4
2018-09-20T11:44:24.326Z,23.4
2018-09-20T11:45:13.886Z,23.4
2018-09-20T11:46:04.175Z,23.4
2018-09-20T11:46:54.512Z,23.4
2018-09-20T11:47:44.504Z,23.4
2018-09-20T11:48:33.749Z,23.4
2018-09-20T16:40:40.701Z,24.1
2018-09-20T16:41:31.025Z,24.1
2018-09-20T16:42:20.323Z,24.1
2018-09-20T16:43:09.827Z,24.1
2018-09-20T16:44:00.480Z,24.1
2018-09-20T16:44:50.133Z,24.1
2018-09-20T16:45:40.823Z,24.1
2018-09-20T16:46:31.082Z,24.1
2018-09-20T16:47:20.605Z,24.1
2018-09-20T16:48:11.271Z,24.1
2018-09-20T16:49:01.603Z,24.1
2018-09-20T16:49:51.097Z,24.1
2018-09-20T16:50:41.117Z,24.1
2018-09-20T16:51:31.482Z,24.1
2018-09-20T16:52:21.840Z,24.1
2018-09-20T16:53:12.815Z,24.1
2018-09-20T16:54:01.474Z,24.1
2018-09-20T16:54:51.774Z,24.1
2018-09-20T16:55:41.020Z,24.1
2018-09-20T16:56:31.619Z,24.1
2018-09-20T16:57:21.108Z,24
2018-09-20T16:58:11.711Z,24.1
2018-09-20T16:59:02.019Z,24
2018-09-20T16:59:51.862Z,24
2018-09-20T17:00:41.094Z,24
2018-09-20T17:01:31.999Z,24
2018-09-20T17:02:21.582Z,24
2018-09-20T17:03:12.101Z,24
2018-09-20T17:04:01.592Z,24
2018-09-20T17:04:51.946Z,24
2018-09-20T17:05:42.322Z,24
2018-09-20T17:06:32.140Z,24
2018-09-20T17:07:23.190Z,24
2018-09-20T17:08:11.916Z,24
2018-09-20T17:09:01.967Z,24
2018-09-20T17:09:52.897Z,24
2018-09-20T17:10:43.021Z,23.9
2018-09-20T17:11:32.539Z,23.9
2018-09-20T17:12:22.329Z,23.9
2018-09-20T17:13:12.432Z,23.9
2018-09-20T17:14:02.754Z,23.9
2018-09-20T17:14:54.774Z,23.9
2018-09-20T17:15:42.786Z,23.9
2018-09-20T17:16:33.245Z,23.9
2018-09-20T17:17:22.656Z,23.9
2018-09-20T17:18:13.551Z,23.9
2018-09-20T17:19:03.371Z,23.9
2018-09-20T17:19:54.104Z,23.9
2018-09-20T17:20:42.886Z,23.9
2018-09-20T17:21:33.789Z,23.9
2018-09-20T17:22:23.323Z,23.9
2018-09-20T17:23:13.356Z,23.9
2018-09-20T17:24:03.691Z,23.9
2018-09-20T17:24:53.723Z,23.9
2018-09-20T17:25:43.833Z,23.9
2018-09-20T17:26:34.151Z,23.9
2018-09-20T17:27:23.651Z,23.9
2018-09-20T17:28:13.483Z,23.9
2018-09-20T17:29:04.351Z,23.9
2018-09-20T17:29:54.400Z,23.9
2018-09-20T17:30:43.900Z,23.9